Portada
METAR-TAF:

METAR-TAF

Aeroports :

Waseca Municipal Airport

Waseca, Minnesota, Estats Units d'Amèrica

latitud: 44-04-24N, longitud: 093-33-11W, altitud: 343 m

Observació

L'informe es va fer fa 22 minuts, a les 18:15 UTC
Vent 6 kt del Oest/Sud-Oest
Temperatura 28°C
Humitat 48%
Pressió 1009 hPa
Visibilitat: 16.1 km
Núvols disperses a una alçada de 4800 ft
Núvols disperses a una alçada de 5500 ft
Núvols disperses a una alçada de 7000 ft

METAR: KACQ 251815Z AUTO 24006KT 10SM SCT048 SCT055 SCT070 28/16 A2980 RMK AO2

Hora: 13:37 (18:37 UTC)


TAF: manca

Observacions i pronòstics meteorològics de més de 4000 aeroports (METAR i TAF).

Les estacions disponibles són els punts grocs i vermells al mapa.

Posi el ratolí al punt desitjat per veure el nom de l'estació.

Feu clic per veure les observacions i els pronòstics meteorològics.

Per canviar el mapa: feu clic els botons verds amb una creu de color negre per apropar; al botó verd amb un guió per allunyar la imatge; o en les fletxes verdes per a mapes adjacents.


METAR-TAF: